createdAt,value
2018-02-19T00:00:49.955Z,21.63
2018-02-19T00:01:49.982Z,21.60
2018-02-19T00:02:50.008Z,21.62
2018-02-19T00:03:50.036Z,21.58
2018-02-19T00:04:50.063Z,21.66
2018-02-19T00:05:50.106Z,21.68
2018-02-19T00:06:50.134Z,21.66
2018-02-19T00:07:50.143Z,21.68
2018-02-19T00:08:50.194Z,21.66
2018-02-19T00:09:50.198Z,21.69
2018-02-19T00:10:50.226Z,21.65
2018-02-19T00:11:50.252Z,21.65
2018-02-19T00:12:50.279Z,21.72
2018-02-19T00:13:50.309Z,21.68
2018-02-19T00:14:50.333Z,21.70
2018-02-19T00:15:50.360Z,21.56
2018-02-19T00:16:50.387Z,21.68
2018-02-19T00:17:50.414Z,21.74
2018-02-19T00:18:50.440Z,21.75
2018-02-19T00:19:50.468Z,21.69
2018-02-19T00:20:50.496Z,21.66
2018-02-19T00:21:50.523Z,21.69
2018-02-19T00:22:50.552Z,21.68
2018-02-19T00:23:50.608Z,21.70
2018-02-19T00:24:50.604Z,21.70
2018-02-19T00:25:50.631Z,21.72
2018-02-19T00:26:50.658Z,21.75
2018-02-19T00:27:50.717Z,21.78
2018-02-19T00:28:50.713Z,21.69
2018-02-19T00:29:50.740Z,21.68
2018-02-19T00:30:50.766Z,21.81
2018-02-19T00:31:50.793Z,21.74
2018-02-19T00:32:50.821Z,21.70
2018-02-19T00:33:50.848Z,21.77
2018-02-19T00:34:50.874Z,21.78
2018-02-19T00:35:50.901Z,21.75
2018-02-19T00:36:50.929Z,21.80
2018-02-19T00:37:51.005Z,21.77
2018-02-19T00:38:50.984Z,21.68
2018-02-19T00:39:51.010Z,21.77
2018-02-19T00:40:51.038Z,21.70
2018-02-19T00:41:51.065Z,21.74
2018-02-19T00:42:51.091Z,21.68
2018-02-19T00:43:51.118Z,21.74
2018-02-19T00:44:51.146Z,21.84
2018-02-19T00:45:51.174Z,21.70
2018-02-19T00:46:51.200Z,21.80
2018-02-19T00:47:51.227Z,21.75
2018-02-19T00:48:51.254Z,21.78
2018-02-19T00:49:51.306Z,21.74
2018-02-19T00:50:51.308Z,21.74
2018-02-19T00:51:51.339Z,21.78
2018-02-19T00:52:51.363Z,21.74
2018-02-19T00:53:51.391Z,21.80
2018-02-19T00:54:51.416Z,21.83
2018-02-19T00:55:51.445Z,21.69
2018-02-19T00:56:51.472Z,21.75
2018-02-19T00:57:51.499Z,21.78
2018-02-19T00:58:51.525Z,21.81
2018-02-19T00:59:51.572Z,21.68
2018-02-19T01:00:51.580Z,21.80
2018-02-19T01:01:51.607Z,21.69
2018-02-19T01:02:51.670Z,21.77
2018-02-19T01:03:51.661Z,21.74
2018-02-19T01:04:51.688Z,21.75
2018-02-19T01:05:51.741Z,21.77
2018-02-19T01:06:51.750Z,21.75
2018-02-19T01:07:51.769Z,21.75
2018-02-19T01:08:51.797Z,21.78
2018-02-19T01:09:51.847Z,21.74
2018-02-19T01:10:51.850Z,21.78
2018-02-19T01:11:51.878Z,21.75
2018-02-19T01:12:51.904Z,21.78
2018-02-19T01:13:51.932Z,21.77
2018-02-19T01:14:51.958Z,21.75
2018-02-19T01:15:51.986Z,21.81
2018-02-19T01:16:52.014Z,21.77
2018-02-19T01:17:52.042Z,21.72
2018-02-19T01:18:52.066Z,21.77
2018-02-19T01:19:52.094Z,21.80
2018-02-19T01:20:52.134Z,21.74
2018-02-19T01:21:52.150Z,21.80
2018-02-19T01:22:52.176Z,21.77
2018-02-19T01:23:52.203Z,21.77
2018-02-19T01:24:52.232Z,21.75
2018-02-19T01:25:52.258Z,21.74
2018-02-19T01:26:52.286Z,21.74
2018-02-19T01:27:52.311Z,21.78
2018-02-19T01:28:52.379Z,21.77
2018-02-19T01:29:52.366Z,21.75
2018-02-19T01:30:52.408Z,21.70
2018-02-19T01:31:52.420Z,21.75
2018-02-19T01:32:52.447Z,21.77
2018-02-19T01:33:52.476Z,21.75
2018-02-19T01:34:52.501Z,21.75
2018-02-19T01:35:52.528Z,21.78
2018-02-19T01:36:52.610Z,21.74
2018-02-19T01:37:52.583Z,21.72
2018-02-19T01:38:52.611Z,21.74
2018-02-19T01:39:52.637Z,21.77
2018-02-19T01:40:52.664Z,21.74
2018-02-19T01:41:52.692Z,21.74
2018-02-19T01:42:52.719Z,21.74
2018-02-19T01:43:52.746Z,21.78
2018-02-19T01:44:52.775Z,21.80
2018-02-19T01:45:52.799Z,21.70
2018-02-19T01:46:52.826Z,21.70
2018-02-19T01:47:52.855Z,21.70
2018-02-19T01:48:52.882Z,21.75
2018-02-19T01:49:52.909Z,21.74
2018-02-19T01:50:52.934Z,21.72
2018-02-19T01:51:52.963Z,21.72
2018-02-19T01:52:52.989Z,21.88
2018-02-19T01:53:53.017Z,21.74
2018-02-19T01:54:53.044Z,21.78
2018-02-19T01:55:53.071Z,21.80
2018-02-19T01:56:53.098Z,21.80
2018-02-19T01:57:53.150Z,21.78
2018-02-19T01:58:53.151Z,21.77
2018-02-19T01:59:53.179Z,21.77
2018-02-19T02:00:53.208Z,21.81
2018-02-19T02:01:53.233Z,21.70
2018-02-19T02:02:53.260Z,21.72
2018-02-19T02:03:53.287Z,21.80
2018-02-19T02:04:53.314Z,21.74
2018-02-19T02:05:53.342Z,21.81
2018-02-19T02:06:53.368Z,21.75
2018-02-19T02:07:53.396Z,21.75
2018-02-19T02:08:53.423Z,21.74
2018-02-19T02:09:53.451Z,21.74
2018-02-19T02:10:53.477Z,21.77
2018-02-19T02:11:53.504Z,21.72
2018-02-19T02:12:53.533Z,21.75
2018-02-19T02:13:53.563Z,21.80
2018-02-19T02:14:53.598Z,21.78
2018-02-19T02:15:53.613Z,21.78
2018-02-19T02:16:53.640Z,21.77
2018-02-19T02:17:53.668Z,21.74
2018-02-19T02:18:53.695Z,21.72
2018-02-19T02:19:53.721Z,21.80
2018-02-19T02:20:53.748Z,21.74
2018-02-19T02:21:53.776Z,21.81
2018-02-19T02:22:53.802Z,21.68
2018-02-19T02:23:53.829Z,21.72
2018-02-19T02:24:53.859Z,21.78
2018-02-19T02:25:53.885Z,21.68
2018-02-19T02:26:53.911Z,21.78
2018-02-19T02:27:53.937Z,21.74
2018-02-19T02:28:53.965Z,21.83
2018-02-19T02:29:53.993Z,21.69
2018-02-19T02:30:54.021Z,21.72
2018-02-19T02:31:54.047Z,21.75
2018-02-19T02:32:54.074Z,21.77
2018-02-19T02:33:54.107Z,21.74
2018-02-19T02:34:54.129Z,21.74
2018-02-19T02:35:54.155Z,21.70
2018-02-19T02:36:54.184Z,21.69
2018-02-19T02:37:54.211Z,21.72
2018-02-19T02:38:54.245Z,21.74
2018-02-19T02:39:54.272Z,21.70
2018-02-19T02:40:54.297Z,21.72
2018-02-19T02:41:54.319Z,21.74
2018-02-19T02:42:54.346Z,21.75
2018-02-19T02:43:54.374Z,21.78
2018-02-19T02:44:54.400Z,21.80
2018-02-19T02:45:54.428Z,21.75
2018-02-19T02:46:54.458Z,21.72
2018-02-19T02:47:54.480Z,21.78
2018-02-19T02:48:54.507Z,21.69
2018-02-19T02:49:54.535Z,21.72
2018-02-19T02:50:54.561Z,21.77
2018-02-19T02:51:54.634Z,21.80
2018-02-19T02:52:54.617Z,21.84
2018-02-19T02:53:54.675Z,21.68
2018-02-19T02:54:54.683Z,21.81
2018-02-19T02:55:54.698Z,21.74
2018-02-19T02:56:54.728Z,21.74
2018-02-19T02:57:54.795Z,21.68
2018-02-19T02:58:54.778Z,21.77
2018-02-19T02:59:54.807Z,21.74
2018-02-19T03:00:54.858Z,21.74
2018-02-19T03:01:54.861Z,21.81
2018-02-19T03:02:54.886Z,21.77
2018-02-19T03:03:54.917Z,21.75
2018-02-19T03:04:54.941Z,21.83
2018-02-19T03:05:54.972Z,21.80
2018-02-19T03:06:55.026Z,21.89
2018-02-19T03:07:55.023Z,21.88
2018-02-19T03:08:55.053Z,21.78
2018-02-19T03:09:55.077Z,21.77
2018-02-19T03:10:55.138Z,21.84
2018-02-19T03:11:55.130Z,21.83
2018-02-19T03:12:55.160Z,21.84
2018-02-19T03:13:55.188Z,21.83
2018-02-19T03:14:55.215Z,21.85
2018-02-19T03:15:55.240Z,21.80
2018-02-19T03:16:55.268Z,21.80
2018-02-19T03:17:55.295Z,21.80
2018-02-19T03:18:55.320Z,21.77
2018-02-19T03:19:55.348Z,21.81
2018-02-19T03:20:55.376Z,21.83
2018-02-19T03:21:55.403Z,21.77
2018-02-19T03:22:55.429Z,21.77
2018-02-19T03:23:55.456Z,21.77
2018-02-19T03:24:55.486Z,21.75
2018-02-19T03:25:55.512Z,21.75
2018-02-19T03:26:55.537Z,21.88
2018-02-19T03:27:55.565Z,21.77
2018-02-19T03:28:55.592Z,21.80
2018-02-19T03:29:55.620Z,21.77
2018-02-19T03:30:55.652Z,21.78
2018-02-19T03:31:55.674Z,21.84
2018-02-19T03:32:55.701Z,21.81
2018-02-19T03:33:55.728Z,21.81
2018-02-19T03:34:55.756Z,21.85
2018-02-19T03:35:55.782Z,21.78
2018-02-19T03:36:55.822Z,21.83
2018-02-19T03:37:55.837Z,21.88
2018-02-19T03:38:55.863Z,21.77
2018-02-19T03:39:55.890Z,21.85
2018-02-19T03:40:55.918Z,21.85
2018-02-19T03:41:55.945Z,21.81
2018-02-19T03:42:55.972Z,21.74
2018-02-19T03:43:55.998Z,21.81
2018-02-19T03:44:56.026Z,21.81
2018-02-19T03:45:56.054Z,21.80
2018-02-19T03:46:56.082Z,21.80
2018-02-19T03:47:56.162Z,21.85
2018-02-19T03:48:56.135Z,21.77
2018-02-19T03:49:56.198Z,21.80
2018-02-19T03:50:56.189Z,21.83
2018-02-19T03:51:56.227Z,21.81
2018-02-19T03:52:56.243Z,21.78
2018-02-19T03:53:56.271Z,21.81
2018-02-19T03:54:56.298Z,21.80
2018-02-19T03:55:56.325Z,21.80
2018-02-19T03:56:56.352Z,21.78
2018-02-19T03:57:56.380Z,21.78
2018-02-19T03:58:56.405Z,21.78
2018-02-19T03:59:56.433Z,21.81
2018-02-19T04:00:56.461Z,21.84
2018-02-19T04:01:56.488Z,21.68
2018-02-19T04:02:56.514Z,21.81
2018-02-19T04:03:56.542Z,21.78
2018-02-19T04:04:56.573Z,21.81
2018-02-19T04:05:56.596Z,21.81
2018-02-19T04:06:56.659Z,21.83
2018-02-19T04:07:56.649Z,21.81
2018-02-19T04:08:56.677Z,21.80
2018-02-19T04:09:56.705Z,21.85
2018-02-19T04:10:56.731Z,21.75
2018-02-19T04:11:56.759Z,21.80
2018-02-19T04:12:56.785Z,21.85
2018-02-19T04:13:56.813Z,21.88
2018-02-19T04:14:56.839Z,21.83
2018-02-19T04:15:56.890Z,21.88
2018-02-19T04:16:56.895Z,21.96
2018-02-19T04:17:56.921Z,21.92
2018-02-19T04:18:56.948Z,21.94
2018-02-19T04:19:56.976Z,21.85
2018-02-19T04:20:57.003Z,21.91
2018-02-19T04:21:57.073Z,21.89
2018-02-19T04:22:57.056Z,21.97
2018-02-19T04:23:57.106Z,21.94
2018-02-19T04:24:57.111Z,21.81
2018-02-19T04:25:57.139Z,21.84
2018-02-19T04:26:57.165Z,21.85
2018-02-19T04:27:57.193Z,21.84
2018-02-19T04:28:57.220Z,21.83
2018-02-19T04:29:57.249Z,21.81
2018-02-19T04:30:57.316Z,21.85
2018-02-19T04:31:57.301Z,21.84
2018-02-19T04:32:57.328Z,21.81
2018-02-19T04:33:57.355Z,21.80
2018-02-19T04:34:57.384Z,21.81
2018-02-19T04:35:57.409Z,21.80
2018-02-19T04:36:57.438Z,21.81
2018-02-19T04:37:57.464Z,21.78
2018-02-19T04:38:57.491Z,21.88
2018-02-19T04:39:57.518Z,21.81
2018-02-19T04:40:57.545Z,21.88
2018-02-19T04:41:57.573Z,21.83
2018-02-19T04:42:57.600Z,21.84
2018-02-19T04:43:57.626Z,21.97
2018-02-19T04:44:57.709Z,21.97
2018-02-19T04:45:57.682Z,21.91
2018-02-19T04:46:57.714Z,21.85
2018-02-19T04:47:57.736Z,21.88
2018-02-19T04:48:57.762Z,21.88
2018-02-19T04:49:57.790Z,21.84
2018-02-19T04:50:57.817Z,21.83
2018-02-19T04:51:57.844Z,21.80
2018-02-19T04:52:57.872Z,21.84
2018-02-19T04:53:57.900Z,21.81
2018-02-19T04:54:57.926Z,21.85
2018-02-19T04:55:57.952Z,21.85
2018-02-19T04:56:57.979Z,21.83
2018-02-19T04:57:58.008Z,21.84
2018-02-19T04:58:58.047Z,21.83
2018-02-19T04:59:58.061Z,21.83
2018-02-19T05:00:58.088Z,21.84
2018-02-19T05:01:58.131Z,21.89
2018-02-19T05:02:58.142Z,21.80
2018-02-19T05:03:58.170Z,21.96
2018-02-19T05:04:58.206Z,21.88
2018-02-19T05:05:58.224Z,21.88
2018-02-19T05:06:58.289Z,21.89
2018-02-19T05:07:58.280Z,21.84
2018-02-19T05:08:58.305Z,21.92
2018-02-19T05:09:58.332Z,21.91
2018-02-19T05:10:58.366Z,21.92
2018-02-19T05:11:58.386Z,21.80
2018-02-19T05:12:58.413Z,21.88
2018-02-19T05:13:58.496Z,21.84
2018-02-19T05:14:58.467Z,21.88
2018-02-19T05:15:58.495Z,21.80
2018-02-19T05:16:58.522Z,21.81
2018-02-19T05:17:58.549Z,21.83
2018-02-19T05:18:58.576Z,21.91
2018-02-19T05:19:58.603Z,21.83
2018-02-19T05:20:58.630Z,21.88
2018-02-19T05:21:58.658Z,21.78
2018-02-19T05:22:58.694Z,21.84
2018-02-19T05:23:58.712Z,21.89
2018-02-19T05:24:58.739Z,21.83
2018-02-19T05:25:58.785Z,21.88
2018-02-19T05:26:58.796Z,21.88
2018-02-19T05:27:58.820Z,21.91
2018-02-19T05:28:58.847Z,21.89
2018-02-19T05:29:58.875Z,21.84
2018-02-19T05:30:58.901Z,21.91
2018-02-19T05:31:58.929Z,21.96
2018-02-19T05:32:58.970Z,21.96
2018-02-19T05:33:58.984Z,21.91
2018-02-19T05:34:59.010Z,21.94
2018-02-19T05:35:59.036Z,21.91
2018-02-19T05:36:59.064Z,21.91
2018-02-19T05:37:59.092Z,21.85
2018-02-19T05:38:59.118Z,21.88
2018-02-19T05:39:59.146Z,21.91
2018-02-19T05:40:59.175Z,21.97
2018-02-19T05:41:59.201Z,22.00
2018-02-19T05:42:59.228Z,21.92
2018-02-19T05:43:59.254Z,21.94
2018-02-19T05:44:59.284Z,22.01
2018-02-19T05:45:59.309Z,22.01
2018-02-19T05:46:59.337Z,22.07
2018-02-19T05:47:59.363Z,21.99
2018-02-19T05:48:59.391Z,21.96
2018-02-19T05:49:59.419Z,22.08
2018-02-19T05:50:59.444Z,22.10
2018-02-19T05:51:59.471Z,22.07
2018-02-19T05:52:59.498Z,22.16
2018-02-19T05:53:59.526Z,22.15
2018-02-19T05:54:59.553Z,22.10
2018-02-19T05:55:59.580Z,22.16
2018-02-19T05:56:59.642Z,22.21
2018-02-19T05:57:59.635Z,22.19
2018-02-19T05:58:59.661Z,22.21
2018-02-19T05:59:59.689Z,22.38
2018-02-19T06:00:59.717Z,22.28
2018-02-19T06:01:59.765Z,22.37
2018-02-19T06:02:59.770Z,22.30
2018-02-19T06:03:59.798Z,22.37
2018-02-19T06:04:59.824Z,22.41
2018-02-19T06:05:59.853Z,22.37
2018-02-19T06:06:59.881Z,22.33
2018-02-19T06:07:59.929Z,22.41
2018-02-19T06:08:59.934Z,22.36
2018-02-19T06:09:59.962Z,22.37
2018-02-19T06:10:59.989Z,22.37
2018-02-19T06:12:00.016Z,22.40
2018-02-19T06:13:00.043Z,22.38
2018-02-19T06:14:00.071Z,22.33
2018-02-19T06:15:00.098Z,22.36
2018-02-19T06:16:00.124Z,22.28
2018-02-19T06:17:00.152Z,22.30
2018-02-19T06:18:00.179Z,22.28
2018-02-19T06:19:00.206Z,22.26
2018-02-19T06:20:00.232Z,22.23
2018-02-19T06:21:00.261Z,22.25
2018-02-19T06:22:00.293Z,22.23
2018-02-19T06:23:00.314Z,22.28
2018-02-19T06:24:00.343Z,22.25
2018-02-19T06:25:00.370Z,22.31
2018-02-19T06:26:00.398Z,22.31
2018-02-19T06:27:00.424Z,22.28
2018-02-19T06:28:00.451Z,22.31
2018-02-19T06:29:00.479Z,22.30
2018-02-19T06:30:00.506Z,22.28
2018-02-19T06:31:00.533Z,22.31
2018-02-19T06:32:00.563Z,22.28
2018-02-19T06:33:00.588Z,22.28
2018-02-19T06:34:00.618Z,22.28
2018-02-19T06:35:00.642Z,22.26
2018-02-19T06:36:00.670Z,22.30
2018-02-19T06:37:00.697Z,22.28
2018-02-19T06:38:00.727Z,22.28
2018-02-19T06:39:00.752Z,22.33
2018-02-19T06:40:00.804Z,22.33
2018-02-19T06:41:00.807Z,22.43
2018-02-19T06:42:00.835Z,22.28
2018-02-19T06:43:00.880Z,22.38
2018-02-19T06:44:00.890Z,22.44
2018-02-19T06:45:00.915Z,22.41
2018-02-19T06:46:00.943Z,22.33
2018-02-19T06:47:00.992Z,22.43
2018-02-19T06:48:00.997Z,22.44
2018-02-19T06:49:01.025Z,22.41
2018-02-19T06:50:01.053Z,22.40
2018-02-19T06:51:01.081Z,22.44
2018-02-19T06:52:01.107Z,22.37
2018-02-19T06:53:01.135Z,22.47
2018-02-19T06:54:01.162Z,22.52
2018-02-19T06:55:01.190Z,22.59
2018-02-19T06:56:01.219Z,22.67
2018-02-19T06:57:01.248Z,22.63
2018-02-19T06:58:01.272Z,22.62
2018-02-19T06:59:01.299Z,22.67
2018-02-19T07:00:01.324Z,22.65
2018-02-19T07:01:01.353Z,22.59
2018-02-19T07:02:01.382Z,22.61
2018-02-19T07:03:01.407Z,22.63
2018-02-19T07:04:01.434Z,22.59
2018-02-19T07:05:02.177Z,22.65
2018-02-19T07:06:01.494Z,22.67
2018-02-19T07:07:01.516Z,22.65
2018-02-19T07:08:01.544Z,22.62
2018-02-19T07:09:01.573Z,22.65
2018-02-19T07:10:01.600Z,22.61
2018-02-19T07:11:01.626Z,22.63
2018-02-19T07:12:01.653Z,22.63
2018-02-19T07:13:01.681Z,22.61
2018-02-19T07:14:01.709Z,22.67
2018-02-19T07:15:01.735Z,22.62
2018-02-19T07:16:01.779Z,22.65
2018-02-19T07:17:01.791Z,22.59
2018-02-19T07:18:01.818Z,22.62
2018-02-19T07:19:01.848Z,22.61
2018-02-19T07:20:01.873Z,22.62
2018-02-19T07:21:01.900Z,22.65
2018-02-19T07:22:01.929Z,22.58
2018-02-19T07:23:01.955Z,22.59
2018-02-19T07:24:01.984Z,22.68
2018-02-19T07:25:02.020Z,22.67
2018-02-19T07:26:02.037Z,22.62
2018-02-19T07:27:02.065Z,22.56
2018-02-19T07:28:02.092Z,22.65
2018-02-19T07:29:02.119Z,22.65
2018-02-19T07:30:02.148Z,22.67
2018-02-19T07:31:02.202Z,22.62
2018-02-19T07:32:02.203Z,22.61
2018-02-19T07:33:02.254Z,22.59
2018-02-19T07:34:02.257Z,22.62
2018-02-19T07:35:02.290Z,22.61
2018-02-19T07:36:02.311Z,22.55
2018-02-19T07:37:02.342Z,22.61
2018-02-19T07:38:02.367Z,22.58
2018-02-19T07:39:02.394Z,22.55
2018-02-19T07:40:02.423Z,22.67
2018-02-19T07:41:02.449Z,22.59
2018-02-19T07:42:02.512Z,22.59
2018-02-19T07:43:02.504Z,22.58
2018-02-19T07:44:02.532Z,22.56
2018-02-19T07:45:02.591Z,22.61
2018-02-19T07:46:02.586Z,22.52
2018-02-19T07:47:02.614Z,22.62
2018-02-19T07:48:02.642Z,22.68
2018-02-19T07:49:02.704Z,22.56
2018-02-19T07:50:02.699Z,22.58
2018-02-19T07:51:02.726Z,22.68
2018-02-19T07:52:02.751Z,22.73
2018-02-19T07:53:02.780Z,22.70
2018-02-19T07:54:02.844Z,22.81
2018-02-19T07:55:02.833Z,22.74
2018-02-19T07:56:02.862Z,22.81
2018-02-19T07:57:02.913Z,22.83
2018-02-19T07:58:02.918Z,22.91
2018-02-19T07:59:02.948Z,22.89
2018-02-19T08:00:02.971Z,22.89
2018-02-19T08:01:03.008Z,22.86
2018-02-19T08:02:03.031Z,22.89
2018-02-19T08:03:03.063Z,22.89
2018-02-19T08:04:03.080Z,22.88
2018-02-19T08:05:03.139Z,22.93
2018-02-19T08:06:03.140Z,22.83
2018-02-19T08:07:03.163Z,22.92
2018-02-19T08:08:03.213Z,22.88
2018-02-19T08:09:03.223Z,22.74
2018-02-19T08:10:03.280Z,22.86
2018-02-19T08:11:03.273Z,22.86
2018-02-19T08:12:03.299Z,22.78
2018-02-19T08:13:03.328Z,22.80
2018-02-19T08:14:03.356Z,22.71
2018-02-19T08:15:03.383Z,22.84
2018-02-19T08:16:03.413Z,22.78
2018-02-19T08:17:03.438Z,22.76
2018-02-19T08:18:03.466Z,22.70
2018-02-19T08:19:03.496Z,22.76
2018-02-19T08:20:03.532Z,22.77
2018-02-19T08:21:03.585Z,22.73
2018-02-19T08:22:03.575Z,22.74
2018-02-19T08:23:03.602Z,22.68
2018-02-19T08:24:03.644Z,22.63
2018-02-19T08:25:03.657Z,22.67
2018-02-19T08:26:03.715Z,22.76
2018-02-19T08:27:03.712Z,22.73
2018-02-19T08:28:03.743Z,22.76
2018-02-19T08:29:03.771Z,22.71
2018-02-19T08:30:03.798Z,22.67
2018-02-19T08:31:03.822Z,22.71
2018-02-19T08:32:03.883Z,22.70
2018-02-19T08:33:03.895Z,22.71
2018-02-19T08:34:03.920Z,22.70
2018-02-19T08:35:03.939Z,22.65
2018-02-19T08:36:03.960Z,22.68
2018-02-19T08:37:03.986Z,22.71
2018-02-19T08:38:04.015Z,22.80
2018-02-19T08:39:04.042Z,22.70
2018-02-19T08:40:04.069Z,22.76
2018-02-19T08:41:04.097Z,22.76
2018-02-19T08:42:04.126Z,22.65
2018-02-19T08:43:04.152Z,22.74
2018-02-19T08:44:04.181Z,22.74
2018-02-19T08:45:04.208Z,22.70
2018-02-19T08:46:04.236Z,22.67
2018-02-19T08:47:04.268Z,22.78
2018-02-19T08:48:04.290Z,22.76
2018-02-19T08:49:04.321Z,22.71
2018-02-19T08:50:04.349Z,22.76
2018-02-19T08:51:04.377Z,22.84
2018-02-19T08:52:04.398Z,22.89
2018-02-19T08:53:04.430Z,22.83
2018-02-19T08:54:04.455Z,22.81
2018-02-19T08:55:04.482Z,22.74
2018-02-19T08:56:04.513Z,22.84
2018-02-19T08:57:04.549Z,22.91
2018-02-19T08:58:04.565Z,22.89
2018-02-19T08:59:04.616Z,22.86
2018-02-19T09:00:04.619Z,22.93
2018-02-19T09:01:04.646Z,22.93
2018-02-19T09:02:04.675Z,22.86
2018-02-19T09:03:04.703Z,22.86
2018-02-19T09:04:04.729Z,22.81
2018-02-19T09:05:04.761Z,22.92
2018-02-19T09:06:04.785Z,22.84
2018-02-19T09:07:04.811Z,22.88
2018-02-19T09:08:04.876Z,22.81
2018-02-19T09:09:04.868Z,22.76
2018-02-19T09:10:04.897Z,22.81
2018-02-19T09:11:04.924Z,22.81
2018-02-19T09:12:04.952Z,22.81
2018-02-19T09:13:04.977Z,22.81
2018-02-19T09:14:05.004Z,22.86
2018-02-19T09:15:05.031Z,22.91
2018-02-19T09:16:05.062Z,22.91
2018-02-19T09:17:05.092Z,22.83
2018-02-19T09:18:05.114Z,22.86
2018-02-19T09:19:05.810Z,22.91
2018-02-19T09:20:05.169Z,22.93
2018-02-19T09:21:05.196Z,22.86
2018-02-19T09:22:05.225Z,22.93
2018-02-19T09:23:05.252Z,22.89
2018-02-19T09:24:05.290Z,22.91
2018-02-19T09:25:05.307Z,22.93
2018-02-19T09:26:05.336Z,22.89
2018-02-19T09:27:05.361Z,22.96
2018-02-19T09:28:05.389Z,22.89
2018-02-19T09:29:05.417Z,22.92
2018-02-19T09:30:05.444Z,22.91
2018-02-19T09:31:05.480Z,22.95
2018-02-19T09:32:05.499Z,22.93
2018-02-19T09:33:05.527Z,22.84
2018-02-19T09:34:05.555Z,22.88
2018-02-19T09:35:05.583Z,22.84
2018-02-19T09:36:05.615Z,22.88
2018-02-19T09:37:05.666Z,22.86
2018-02-19T09:38:05.665Z,22.88
2018-02-19T09:39:05.691Z,22.92
2018-02-19T09:40:05.720Z,22.89
2018-02-19T09:41:06.316Z,22.89
2018-02-19T09:42:05.775Z,22.86
2018-02-19T09:43:05.802Z,22.84
2018-02-19T09:44:05.911Z,22.91
2018-02-19T09:45:05.857Z,22.86
2018-02-19T09:46:05.887Z,22.86
2018-02-19T09:47:05.912Z,22.81
2018-02-19T09:48:05.952Z,22.93
2018-02-19T09:49:05.974Z,22.95
2018-02-19T09:50:06.002Z,22.92
2018-02-19T09:51:06.024Z,22.92
2018-02-19T09:52:06.051Z,22.92
2018-02-19T09:53:06.086Z,22.84
2018-02-19T09:54:06.106Z,22.84
2018-02-19T09:55:06.165Z,22.92
2018-02-19T09:56:06.161Z,22.95
2018-02-19T09:57:06.195Z,22.89
2018-02-19T09:58:06.216Z,22.95
2018-02-19T09:59:06.245Z,22.84
2018-02-19T10:00:06.272Z,22.92
2018-02-19T10:01:06.336Z,22.92
2018-02-19T10:02:06.330Z,22.93
2018-02-19T10:03:06.356Z,22.88
2018-02-19T10:04:06.381Z,22.96
2018-02-19T10:05:06.409Z,22.95
2018-02-19T10:06:06.438Z,22.95
2018-02-19T10:07:06.481Z,22.92
2018-02-19T10:08:06.494Z,22.86
2018-02-19T10:09:06.525Z,22.92
2018-02-19T10:10:06.554Z,22.95
2018-02-19T10:11:06.575Z,22.93
2018-02-19T10:12:06.606Z,22.92
2018-02-19T10:13:06.630Z,22.84
2018-02-19T10:14:06.694Z,22.99
2018-02-19T10:15:06.684Z,23.06
2018-02-19T10:16:06.714Z,22.92
2018-02-19T10:17:06.740Z,23.08
2018-02-19T10:18:06.770Z,23.06
2018-02-19T10:19:06.795Z,23.11
2018-02-19T10:20:06.825Z,23.06
2018-02-19T10:21:06.851Z,23.07
2018-02-19T10:22:06.879Z,23.08
2018-02-19T10:23:06.910Z,23.01
2018-02-19T10:24:06.933Z,23.18
2018-02-19T10:25:06.961Z,23.08
2018-02-19T10:26:06.989Z,23.07
2018-02-19T10:27:07.015Z,23.08
2018-02-19T10:28:07.045Z,23.11
2018-02-19T10:29:07.098Z,23.11
2018-02-19T10:30:07.099Z,23.13
2018-02-19T10:31:07.125Z,23.11
2018-02-19T10:32:07.153Z,23.17
2018-02-19T10:33:07.182Z,23.13
2018-02-19T10:34:07.210Z,23.08
2018-02-19T10:35:07.237Z,23.07
2018-02-19T10:36:07.265Z,23.04
2018-02-19T10:37:07.292Z,23.04
2018-02-19T10:38:07.319Z,22.98
2018-02-19T10:39:07.347Z,22.95
2018-02-19T10:40:07.374Z,22.92
2018-02-19T10:41:07.402Z,22.86
2018-02-19T10:42:07.430Z,22.96
2018-02-19T10:43:07.476Z,22.91
2018-02-19T10:44:07.485Z,22.91
2018-02-19T10:45:07.512Z,22.89
2018-02-19T10:46:07.541Z,22.89
2018-02-19T10:47:07.571Z,22.88
2018-02-19T10:48:07.596Z,22.89
2018-02-19T10:49:07.623Z,22.84
2018-02-19T10:50:07.650Z,22.93
2018-02-19T10:51:07.678Z,22.92
2018-02-19T10:52:07.705Z,22.92
2018-02-19T10:53:07.733Z,22.84
2018-02-19T10:54:07.761Z,22.93
2018-02-19T10:55:07.789Z,22.91
2018-02-19T10:56:07.816Z,22.86
2018-02-19T10:57:07.843Z,22.91
2018-02-19T10:58:07.872Z,22.84
2018-02-19T10:59:07.898Z,22.91
2018-02-19T11:00:07.927Z,22.81
2018-02-19T11:01:07.954Z,22.86
2018-02-19T11:02:07.981Z,22.88
2018-02-19T11:03:08.009Z,22.74
2018-02-19T11:04:08.037Z,22.77
2018-02-19T11:05:08.068Z,22.78
2018-02-19T11:06:08.100Z,22.81
2018-02-19T11:07:08.118Z,22.78
2018-02-19T11:08:08.147Z,22.76
2018-02-19T11:09:08.174Z,22.84
2018-02-19T11:10:08.206Z,22.80
2018-02-19T11:11:08.230Z,22.86
2018-02-19T11:12:08.257Z,22.89
2018-02-19T11:13:08.285Z,22.93
2018-02-19T11:14:08.314Z,22.89
2018-02-19T11:15:08.340Z,22.89
2018-02-19T11:16:08.367Z,22.96
2018-02-19T11:17:08.423Z,22.99
2018-02-19T11:18:08.458Z,22.99
2018-02-19T11:19:08.455Z,23.07
2018-02-19T11:20:08.479Z,23.02
2018-02-19T11:21:08.510Z,23.02
2018-02-19T11:22:08.541Z,23.07
2018-02-19T11:23:08.560Z,22.98
2018-02-19T11:24:08.656Z,23.01
2018-02-19T11:25:08.638Z,23.01
2018-02-19T11:26:08.644Z,23.04
2018-02-19T11:27:08.706Z,23.04
2018-02-19T11:28:08.697Z,22.93
2018-02-19T11:29:08.727Z,23.04
2018-02-19T11:30:08.756Z,23.06
2018-02-19T11:31:08.780Z,22.93
2018-02-19T11:32:08.816Z,22.98
2018-02-19T11:33:08.838Z,22.92
2018-02-19T11:34:08.864Z,22.98
2018-02-19T11:35:08.891Z,22.89
2018-02-19T11:36:08.919Z,22.99
2018-02-19T11:37:08.947Z,22.99
2018-02-19T11:38:08.974Z,22.92
2018-02-19T11:39:09.002Z,22.88
2018-02-19T11:40:09.030Z,22.95
2018-02-19T11:41:09.057Z,22.89
2018-02-19T11:42:09.085Z,22.96
2018-02-19T11:43:09.152Z,22.89
2018-02-19T11:44:09.139Z,22.95
2018-02-19T11:45:09.167Z,22.88
2018-02-19T11:46:09.196Z,22.80
2018-02-19T11:47:09.248Z,22.81
2018-02-19T11:48:09.250Z,22.76
2018-02-19T11:49:09.279Z,22.76
2018-02-19T11:50:09.308Z,22.81
2018-02-19T11:51:09.333Z,22.81
2018-02-19T11:52:09.362Z,22.78
2018-02-19T11:53:09.388Z,22.92
2018-02-19T11:54:09.417Z,22.93
2018-02-19T11:55:09.443Z,22.88
2018-02-19T11:56:09.471Z,22.95
2018-02-19T11:57:09.498Z,22.93
2018-02-19T11:58:09.526Z,22.93
2018-02-19T11:59:09.554Z,22.95
2018-02-19T12:00:09.581Z,22.88
2018-02-19T12:01:09.608Z,22.93
2018-02-19T12:02:09.636Z,22.83
2018-02-19T12:03:09.665Z,22.96
2018-02-19T12:04:09.693Z,22.89
2018-02-19T12:05:09.746Z,23.01
2018-02-19T12:06:09.750Z,22.99
2018-02-19T12:07:09.773Z,23.06
2018-02-19T12:08:09.802Z,23.10
2018-02-19T12:09:09.831Z,22.98
2018-02-19T12:10:10.826Z,23.08
2018-02-19T12:11:09.920Z,22.98
2018-02-19T12:12:09.913Z,23.08
2018-02-19T12:13:09.942Z,23.11
2018-02-19T12:14:09.971Z,23.13
2018-02-19T12:15:09.995Z,23.14
2018-02-19T12:16:10.025Z,23.08
2018-02-19T12:17:10.051Z,23.20
2018-02-19T12:18:10.078Z,23.13
2018-02-19T12:19:10.109Z,23.11
2018-02-19T12:20:10.133Z,23.14
2018-02-19T12:21:10.168Z,23.11
2018-02-19T12:22:10.188Z,23.18
2018-02-19T12:23:10.215Z,23.10
2018-02-19T12:24:10.244Z,23.06
2018-02-19T12:25:10.274Z,23.11
2018-02-19T12:26:10.299Z,22.98
2018-02-19T12:27:10.350Z,23.13
2018-02-19T12:28:10.355Z,23.08
2018-02-19T12:29:10.383Z,23.02
2018-02-19T12:30:10.413Z,23.06
2018-02-19T12:31:10.446Z,23.01
2018-02-19T12:32:10.464Z,22.96
2018-02-19T12:33:10.492Z,22.91
2018-02-19T12:34:10.521Z,22.92
2018-02-19T12:35:10.548Z,22.89
2018-02-19T12:36:10.575Z,22.88
2018-02-19T12:37:10.602Z,22.88
2018-02-19T12:38:10.649Z,22.92
2018-02-19T12:39:10.658Z,22.92
2018-02-19T12:40:10.685Z,22.89
2018-02-19T12:41:10.714Z,22.88
2018-02-19T12:42:10.741Z,22.89
2018-02-19T12:43:10.771Z,22.86
2018-02-19T12:44:10.796Z,22.84
2018-02-19T12:45:10.880Z,22.88
2018-02-19T12:46:10.853Z,22.78
2018-02-19T12:47:10.880Z,22.81
2018-02-19T12:48:10.910Z,22.86
2018-02-19T12:49:10.965Z,22.84
2018-02-19T12:50:10.963Z,22.83
2018-02-19T12:51:11.006Z,22.80
2018-02-19T12:52:11.017Z,22.84
2018-02-19T12:53:11.045Z,22.91